Time;durP1;ratioP1;P1;durP2;ratioP2;P2;SDS_P1;SDS_P2;PMS_P1;PMS_P2;Temp;Humidity;BMP_temperature;BMP_pressure;BME280_temperature;BME280_humidity;BME280_pressure;Samples;Min_cycle;Max_cycle;Signal;HPM_P1;HPM_P2
2023/07/19 00:01:56;;;;;;;2.20;1.50;;;16.50;99.90;;;;;;5006875;28;20084;-96
2023/07/19 00:04:22;;;;;;;1.95;1.38;;;16.50;99.90;;;;;;5004825;28;20033;-95
2023/07/19 00:06:48;;;;;;;3.30;1.55;;;16.50;99.90;;;;;;5033988;28;20052;-95
2023/07/19 00:09:16;;;;;;;1.98;1.42;;;16.60;99.90;;;;;;4992868;28;20045;-95
2023/07/19 00:11:42;;;;;;;2.25;1.60;;;16.50;99.90;;;;;;5033487;28;20036;-95
2023/07/19 00:14:11;;;;;;;2.22;1.27;;;16.50;99.90;;;;;;5012730;28;20491;-96
2023/07/19 00:16:36;;;;;;;3.35;1.65;;;16.50;99.90;;;;;;5021231;28;20483;-95
2023/07/19 00:19:02;;;;;;;2.20;1.38;;;16.40;99.90;;;;;;5030106;28;20048;-95
2023/07/19 00:21:28;;;;;;;2.85;1.60;;;16.20;99.90;;;;;;5038499;28;20037;-95
2023/07/19 00:23:54;;;;;;;2.80;1.52;;;16.50;99.90;;;;;;5040702;28;20040;-96
2023/07/19 00:26:20;;;;;;;3.88;1.52;;;16.40;99.90;;;;;;5032784;28;20044;-96
2023/07/19 00:28:46;;;;;;;2.55;1.75;;;16.40;99.90;;;;;;5050130;28;20036;-95
2023/07/19 00:31:11;;;;;;;2.58;1.60;;;16.40;99.90;;;;;;5031549;28;20165;-95
2023/07/19 00:33:37;;;;;;;2.65;1.58;;;16.50;99.90;;;;;;5023451;28;20048;-96
2023/07/19 00:36:03;;;;;;;2.42;1.50;;;16.50;99.90;;;;;;5023634;28;20046;-95
2023/07/19 00:38:29;;;;;;;3.17;1.70;;;16.50;99.90;;;;;;5047812;28;20036;-95
2023/07/19 00:40:57;;;;;;;2.72;1.98;;;16.50;99.90;;;;;;5019810;28;20143;-96
2023/07/19 00:43:23;;;;;;;2.40;1.73;;;16.50;99.90;;;;;;5034174;28;20049;-95
2023/07/19 00:45:56;;;;;;;1.73;1.42;;;16.50;99.90;;;;;;5035892;28;20047;-96
2023/07/19 00:48:22;;;;;;;3.72;2.05;;;16.50;99.90;;;;;;5027155;28;20542;-96
2023/07/19 00:50:50;;;;;;;4.77;1.93;;;16.50;99.90;;;;;;5026107;28;20102;-95
2023/07/19 00:53:17;;;;;;;4.20;2.30;;;16.50;99.90;;;;;;5037611;28;20470;-96
2023/07/19 00:55:49;;;;;;;3.47;2.80;;;16.50;99.90;;;;;;5044062;28;20036;-95
2023/07/19 00:58:16;;;;;;;5.90;2.83;;;16.40;99.90;;;;;;5052307;28;20135;-96
2023/07/19 01:00:44;;;;;;;5.35;2.40;;;16.30;99.90;;;;;;5040279;28;20127;-96
2023/07/19 01:03:13;;;;;;;3.30;2.20;;;16.30;99.90;;;;;;5035586;28;20102;-96
2023/07/19 01:05:40;;;;;;;2.75;2.47;;;16.30;99.90;;;;;;5013397;28;20040;-95
2023/07/19 01:08:09;;;;;;;3.50;2.47;;;16.30;99.90;;;;;;5031865;28;20060;-96
2023/07/19 01:10:35;;;;;;;3.30;2.20;;;16.30;99.90;;;;;;5026826;28;20051;-95
2023/07/19 01:13:09;;;;;;;3.13;2.70;;;16.30;99.90;;;;;;5038573;28;20040;-96
2023/07/19 01:15:36;;;;;;;4.28;3.20;;;16.10;99.90;;;;;;5034017;28;20045;-96
2023/07/19 01:18:03;;;;;;;4.15;2.60;;;16.30;99.90;;;;;;5026590;28;20040;-96
2023/07/19 01:20:29;;;;;;;2.85;2.40;;;16.30;99.90;;;;;;5030151;28;20370;-96
2023/07/19 01:22:56;;;;;;;3.58;2.30;;;16.30;99.90;;;;;;5024345;28;20048;-96
2023/07/19 01:25:23;;;;;;;2.83;2.05;;;16.30;99.90;;;;;;5039742;28;20055;-96
2023/07/19 01:27:51;;;;;;;2.95;2.40;;;16.30;99.90;;;;;;5052480;28;20051;-96
2023/07/19 01:30:17;;;;;;;3.22;2.13;;;16.40;99.90;;;;;;5034110;28;20120;-96
2023/07/19 01:32:44;;;;;;;4.88;2.53;;;16.40;99.90;;;;;;5038481;28;20036;-96
2023/07/19 01:35:13;;;;;;;2.95;2.47;;;16.40;99.90;;;;;;5038351;28;20040;-95
2023/07/19 01:37:39;;;;;;;4.25;2.40;;;16.40;99.90;;;;;;5040737;28;20048;-95
2023/07/19 01:40:06;;;;;;;3.38;2.53;;;16.40;99.90;;;;;;5037228;28;20122;-96
2023/07/19 01:42:32;;;;;;;4.38;2.58;;;16.40;99.90;;;;;;5050241;28;20040;-96
2023/07/19 01:45:00;;;;;;;2.85;2.55;;;16.40;99.90;;;;;;5045945;28;20109;-95
2023/07/19 01:47:26;;;;;;;3.20;2.78;;;16.40;99.90;;;;;;5038557;28;20135;-96
2023/07/19 01:49:52;;;;;;;4.50;2.70;;;16.30;99.90;;;;;;5039533;28;20094;-94
2023/07/19 01:52:18;;;;;;;4.18;2.70;;;16.40;99.90;;;;;;5032817;28;20028;-95
2023/07/19 01:54:44;;;;;;;3.22;2.25;;;16.40;99.90;;;;;;5031479;28;20036;-96
2023/07/19 01:57:14;;;;;;;3.78;2.38;;;16.40;99.90;;;;;;5038993;28;20071;-95
2023/07/19 01:59:40;;;;;;;2.95;2.50;;;16.40;99.90;;;;;;5037523;28;20103;-96
2023/07/19 02:02:10;;;;;;;3.17;2.40;;;16.40;99.90;;;;;;5047476;28;20052;-96
2023/07/19 02:04:36;;;;;;;2.65;2.03;;;16.50;99.90;;;;;;5020001;28;20660;-96
2023/07/19 02:07:02;;;;;;;3.35;1.98;;;16.40;99.90;;;;;;5036245;28;20041;-96
2023/07/19 02:09:28;;;;;;;3.50;1.92;;;16.40;99.90;;;;;;5038010;28;20070;-96
2023/07/19 02:11:54;;;;;;;2.35;2.15;;;16.40;99.90;;;;;;5048008;28;20127;-96
2023/07/19 02:14:20;;;;;;;3.03;2.10;;;16.40;99.90;;;;;;5047250;28;20041;-95
2023/07/19 02:16:45;;;;;;;4.13;2.35;;;16.40;99.90;;;;;;5040808;28;20598;-95
2023/07/19 02:19:11;;;;;;;3.45;2.40;;;16.40;99.90;;;;;;5038795;28;20078;-96
2023/07/19 02:21:37;;;;;;;2.95;2.30;;;16.30;99.90;;;;;;5038689;28;20048;-96
2023/07/19 02:24:03;;;;;;;3.70;2.70;;;16.30;99.90;;;;;;5049870;28;20040;-95
2023/07/19 02:26:29;;;;;;;3.50;2.50;;;16.30;99.90;;;;;;5042824;28;20039;-96
2023/07/19 02:28:55;;;;;;;4.78;2.83;;;16.30;99.90;;;;;;5049136;28;20765;-96
2023/07/19 02:31:24;;;;;;;3.53;2.45;;;16.30;99.90;;;;;;5047725;28;20090;-96
2023/07/19 02:33:50;;;;;;;3.80;2.58;;;16.30;99.90;;;;;;5030301;28;20044;-96
2023/07/19 02:36:16;;;;;;;3.13;2.60;;;16.30;99.90;;;;;;5040049;28;20040;-96
2023/07/19 02:38:44;;;;;;;5.45;2.33;;;16.30;99.90;;;;;;5039143;28;20052;-96
2023/07/19 02:41:10;;;;;;;2.88;2.35;;;16.30;99.90;;;;;;5036212;28;20040;-95
2023/07/19 02:43:41;;;;;;;4.50;2.78;;;16.30;99.90;;;;;;5039730;28;20044;-96
2023/07/19 02:46:07;;;;;;;3.90;2.47;;;16.30;99.90;;;;;;5049558;28;20036;-95
2023/07/19 02:48:33;;;;;;;4.55;2.72;;;16.30;99.90;;;;;;5041007;28;20464;-96
2023/07/19 02:50:58;;;;;;;4.10;2.97;;;16.30;99.90;;;;;;5042288;28;20127;-96
2023/07/19 02:53:24;;;;;;;4.13;2.85;;;16.30;99.90;;;;;;5040914;28;20102;-96
2023/07/19 02:55:50;;;;;;;3.58;2.60;;;16.30;99.90;;;;;;5027778;28;20068;-96
2023/07/19 02:58:16;;;;;;;4.78;2.60;;;16.30;99.90;;;;;;5038040;28;20040;-95
2023/07/19 03:00:43;;;;;;;2.58;2.38;;;16.30;99.90;;;;;;5045546;28;20048;-96
2023/07/19 03:03:10;;;;;;;4.55;2.25;;;16.30;99.90;;;;;;5039581;28;20051;-96
2023/07/19 03:05:42;;;;;;;4.05;2.47;;;16.30;99.90;;;;;;5050624;28;20479;-95
2023/07/19 03:08:11;;;;;;;3.38;2.65;;;16.30;99.90;;;;;;5048758;28;20056;-96
2023/07/19 03:10:45;;;;;;;3.60;2.80;;;16.20;99.90;;;;;;5044178;28;20036;-95
2023/07/19 03:13:11;;;;;;;3.70;3.17;;;16.10;99.90;;;;;;5039299;28;20383;-96
2023/07/19 03:15:44;;;;;;;4.68;3.10;;;16.00;99.90;;;;;;5039479;28;20040;-95
2023/07/19 03:18:10;;;;;;;4.35;2.90;;;16.00;99.90;;;;;;5039541;28;20123;-95
2023/07/19 03:20:36;;;;;;;3.53;2.50;;;16.00;99.90;;;;;;5029086;28;20142;-95
2023/07/19 03:23:02;;;;;;;4.15;2.85;;;16.00;99.90;;;;;;5029843;28;20053;-96
2023/07/19 03:25:29;;;;;;;4.00;2.85;;;16.00;99.90;;;;;;5010055;28;20071;-96
2023/07/19 03:27:54;;;;;;;5.75;3.00;;;16.00;99.90;;;;;;5034529;28;20048;-96
2023/07/19 03:30:21;;;;;;;3.38;2.97;;;16.00;99.90;;;;;;5035642;28;20112;-96
2023/07/19 03:32:49;;;;;;;3.60;2.50;;;16.00;99.90;;;;;;5023792;28;20040;-95
2023/07/19 03:35:15;;;;;;;4.80;2.80;;;16.00;99.90;;;;;;5037646;28;20140;-96
2023/07/19 03:37:44;;;;;;;4.18;2.97;;;16.00;99.90;;;;;;5038119;28;20127;-94
2023/07/19 03:40:11;;;;;;;5.88;3.33;;;16.00;99.90;;;;;;5034120;28;20044;-94
2023/07/19 03:42:48;;;;;;;4.57;2.85;;;16.00;99.90;;;;;;5036834;28;20094;-96
2023/07/19 03:45:24;;;;;;;3.85;3.10;;;16.00;99.90;;;;;;5048247;28;20048;-96
2023/07/19 03:48:02;;;;;;;6.65;3.70;;;16.00;99.90;;;;;;5047663;28;20106;-96
2023/07/19 04:18:59;;;;;;;4.45;2.60;;;16.00;99.90;;;;;;4958014;28;20021;-96
2023/07/19 04:21:42;;;;;;;3.60;2.42;;;16.00;99.90;;;;;;4926686;29;20043;-96
2023/07/19 04:25:03;;;;;;;3.70;2.33;;;16.00;99.90;;;;;;4921330;29;20054;-96
2023/07/19 04:27:48;;;;;;;2.78;2.30;;;16.10;99.90;;;;;;4918760;29;20053;-96
2023/07/19 04:31:07;;;;;;;3.35;2.42;;;16.10;99.90;;;;;;4931236;29;20063;-96
2023/07/19 04:33:49;;;;;;;3.92;2.80;;;16.20;99.90;;;;;;4927587;29;20134;-96
2023/07/19 04:37:03;;;;;;;3.45;2.38;;;16.10;99.90;;;;;;4926376;29;20043;-96
2023/07/19 04:40:35;;;;;;;;;;;;;;;;;;;;;
2023/07/19 04:43:49;;;;;;;3.33;2.45;;;16.40;99.90;;;;;;4949738;29;20112;-96
2023/07/19 04:46:36;;;;;;;3.55;2.38;;;17.00;99.90;;;;;;4959177;28;20047;-96
2023/07/19 04:49:05;;;;;;;3.60;2.53;;;;;;;;;;4913329;29;20443;-96
2023/07/19 04:51:55;;;;;;;3.40;2.38;;;;;;;;;;4944115;29;20055;-96
2023/07/19 04:54:47;;;;;;;5.50;2.97;;;;;;;;;;4945234;29;20039;-96
2023/07/19 04:57:12;;;;;;;3.50;2.60;;;;;;;;;;4944741;29;20130;-96
2023/07/19 04:59:44;;;;;;;4.90;2.72;;;;;;;;;;4942170;28;20026;-96
2023/07/19 05:02:31;;;;;;;4.30;3.10;;;;;;;;;;4953978;29;20087;-96
2023/07/19 05:08:21;;;;;;;3.35;2.33;;;;;;;;;;4877543;29;20050;-96
2023/07/19 05:10:47;;;;;;;4.35;2.30;;;;;;;;;;4842753;28;20562;-95
2023/07/19 05:13:43;;;;;;;3.50;2.10;;;;;;;;;;4901178;28;20048;-95
2023/07/19 05:16:10;;;;;;;2.63;2.20;;;;;;;;;;4917708;28;20058;-96
2023/07/19 05:18:38;;;;;;;3.35;2.10;;;;;;;;;;4901430;28;20054;-96
2023/07/19 05:21:04;;;;;;;4.60;2.13;;;;;;;;;;4925084;29;20042;-96
2023/07/19 05:23:48;;;;;;;2.95;1.65;;;;;;;;;;4939560;28;20051;-96
2023/07/19 05:26:18;;;;;;;3.38;1.83;;;;;;;;;;4912818;29;20054;-96
2023/07/19 05:28:45;;;;;;;3.47;1.42;;;;;;;;;;4931054;29;20099;-96
2023/07/19 05:31:37;;;;;;;3.15;1.50;;;;;;;;;;4926761;29;20086;-96
2023/07/19 05:34:46;;;;;;;2.95;1.88;;;;;;;;;;4936578;29;20059;-96
2023/07/19 05:37:38;;;;;;;4.85;1.85;;;;;;;;;;4943447;28;20048;-96
2023/07/19 05:40:07;;;;;;;3.83;2.00;;;;;;;;;;4940251;29;20090;-96
2023/07/19 05:46:15;;;;;;;3.17;2.08;;;;;;;;;;4927656;29;20055;-96
2023/07/19 05:48:41;;;;;;;3.58;2.00;;;;;;;;;;4921199;29;20056;-91
2023/07/19 05:51:07;;;;;;;3.45;2.10;;;;;;;;;;4921302;29;20208;-95
2023/07/19 05:53:34;;;;;;;5.35;2.20;;;;;;;;;;4905116;29;20094;-92
2023/07/19 05:56:00;;;;;;;6.35;2.10;;;;;;;;;;4922340;29;20062;-94
2023/07/19 05:58:30;;;;;;;5.00;2.20;;;;;;;;;;4921087;29;20133;-94
2023/07/19 06:00:56;;;;;;;5.25;2.13;;;;;;;;;;4902960;28;20048;-96
2023/07/19 06:03:22;;;;;;;4.82;2.15;;;;;;;;;;4925037;29;20046;-95
2023/07/19 06:05:49;;;;;;;3.13;2.15;;;;;;;;;;4920609;28;20479;-96
2023/07/19 06:08:15;;;;;;;3.17;1.90;;;;;;;;;;4905090;29;20050;-95
2023/07/19 06:10:44;;;;;;;3.60;2.38;;;;;;;;;;4940817;29;20043;-95
2023/07/19 06:13:13;;;;;;;4.40;1.77;;;;;;;;;;4921995;28;20142;-96
2023/07/19 06:15:40;;;;;;;4.80;2.30;;;;;;;;;;4930971;29;20051;-95
2023/07/19 06:18:06;;;;;;;3.25;2.00;;;;;;;;;;4919653;29;20055;-95
2023/07/19 06:20:32;;;;;;;3.35;2.10;;;;;;;;;;4911231;29;20047;-96
2023/07/19 06:23:02;;;;;;;3.22;1.45;;;;;;;;;;4905411;29;20047;-95
2023/07/19 06:25:33;;;;;;;3.75;1.77;;;;;;;;;;4926751;28;20059;-96
2023/07/19 06:28:05;;;;;;;3.08;1.25;;;;;;;;;;4925055;28;20039;-96
2023/07/19 06:30:31;;;;;;;2.60;1.40;;;;;;;;;;4926475;29;20043;-96
2023/07/19 06:32:58;;;;;;;2.77;1.20;;;;;;;;;;4936887;29;20040;-95
2023/07/19 06:35:24;;;;;;;3.40;1.30;;;;;;;;;;4921534;29;20055;-96
2023/07/19 06:41:33;;;;;;;2.72;1.08;;;;;;;;;;4924098;29;20460;-94
2023/07/19 06:44:12;;;;;;;2.60;1.13;;;;;;;;;;4876872;29;20615;-95
2023/07/19 06:46:38;;;;;;;2.83;1.45;;;;;;;;;;4912448;29;20138;-96
2023/07/19 06:49:04;;;;;;;2.05;1.05;;;;;;;;;;4921938;29;20061;-96
2023/07/19 06:51:31;;;;;;;1.75;0.80;;;;;;;;;;4925862;29;20060;-95
2023/07/19 06:54:02;;;;;;;2.15;0.90;;;;;;;;;;4912678;29;20097;-95
2023/07/19 06:56:31;;;;;;;1.92;0.85;;;;;;;;;;4908054;29;20533;-95
2023/07/19 06:59:06;;;;;;;2.50;0.98;;;;;;;;;;4922325;29;20609;-95
2023/07/19 07:01:38;;;;;;;1.30;0.77;;;;;;;;;;4922386;28;20047;-96
2023/07/19 07:04:07;;;;;;;3.15;0.95;;;;;;;;;;4919319;29;20040;-95
2023/07/19 07:06:40;;;;;;;1.95;0.73;;;;;;;;;;4949678;28;20622;-96
2023/07/19 07:09:14;;;;;;;1.77;1.10;;;;;;;;;;4929517;29;20047;-96
2023/07/19 07:11:40;;;;;;;3.15;1.15;;;;;;;;;;4922934;29;20039;-96
2023/07/19 07:14:06;;;;;;;2.63;1.42;;;17.00;99.90;;;;;;4925607;29;20035;-96
2023/07/19 07:16:34;;;;;;;1.80;1.23;;;17.00;99.90;;;;;;4906894;28;20058;-96
2023/07/19 07:23:33;;;;;;;2.90;1.20;;;17.20;99.90;;;;;;4897596;28;20042;-95
2023/07/19 07:25:59;;;;;;;4.13;1.30;;;;;;;;;;4910374;29;20061;-95
2023/07/19 07:28:26;;;;;;;4.25;1.40;;;17.50;99.90;;;;;;4923907;29;20080;-94
2023/07/19 07:30:55;;;;;;;3.17;1.20;;;17.70;99.90;;;;;;4937551;28;20052;-95
2023/07/19 07:33:21;;;;;;;4.07;1.40;;;17.70;99.90;;;;;;4924386;29;20043;-95
2023/07/19 07:35:57;;;;;;;1.98;1.02;;;17.80;99.90;;;;;;4923288;29;20039;-94
2023/07/19 07:38:26;;;;;;;2.38;0.98;;;17.80;99.90;;;;;;4923326;29;20078;-95
2023/07/19 07:41:23;;;;;;;;;;;;;;;;;;;;;
2023/07/19 07:44:22;;;;;;;;;;;;;;;;;;;;;
2023/07/19 08:25:17;;;;;;;1.63;0.82;;;19.50;99.90;;;;;;4840311;24;20149;-96
2023/07/19 08:27:47;;;;;;;3.38;1.02;;;19.80;99.90;;;;;;4836338;29;20057;-96
2023/07/19 08:30:16;;;;;;;2.10;1.00;;;20.20;99.90;;;;;;4828069;29;20041;-96
2023/07/19 08:36:20;;;;;;;5.68;1.02;;;21.80;99.90;;;;;;4823575;29;20081;-96
2023/07/19 08:39:54;;;;;;;;;;;;;;;;;;;;;
2023/07/19 08:45:37;;;;;;;6.43;1.00;;;22.70;99.90;;;;;;5050271;23;20464;-96
2023/07/19 08:49:00;;;;;;;2.35;0.80;;;23.20;99.90;;;;;;4812638;29;20053;-96
2023/07/19 08:51:49;;;;;;;1.85;0.80;;;23.80;99.90;;;;;;4822828;29;20052;-96
2023/07/19 08:54:24;;;;;;;1.73;0.80;;;24.50;99.90;;;;;;4825932;29;20049;-95
2023/07/19 08:56:58;;;;;;;2.00;0.70;;;24.80;99.90;;;;;;4827138;29;20052;-96
2023/07/19 08:59:40;;;;;;;3.10;0.80;;;24.30;99.90;;;;;;4840533;29;20050;-96
2023/07/19 09:06:34;;;;;;;2.33;0.65;;;22.20;99.90;;;;;;4801307;29;20115;-96
2023/07/19 09:09:41;;;;;;;4.13;0.85;;;21.00;99.90;;;;;;4764664;30;20114;-96
2023/07/19 09:12:51;;;;;;;4.95;0.88;;;20.20;99.90;;;;;;4691275;30;20064;-96
2023/07/19 09:19:20;;;;;;;1.92;0.98;;;19.10;99.90;;;;;;4700234;30;20125;-96
2023/07/19 09:22:42;;;;;;;1.60;0.50;;;19.20;99.90;;;;;;4713819;30;20616;-96
2023/07/19 09:36:49;;;;;;;1.75;0.90;;;18.90;99.90;;;;;;4775305;30;20078;-96
2023/07/19 09:39:47;;;;;;;1.90;0.82;;;18.70;99.90;;;;;;4764242;29;20036;-96
2023/07/19 09:42:18;;;;;;;0.85;0.60;;;19.10;99.90;;;;;;4751530;30;20052;-96
2023/07/19 09:44:46;;;;;;;3.50;0.98;;;19.00;99.90;;;;;;4744657;30;20110;-94
2023/07/19 09:47:13;;;;;;;1.13;0.75;;;18.90;99.90;;;;;;4762508;29;20050;-95
2023/07/19 09:49:40;;;;;;;5.43;1.10;;;18.70;99.90;;;;;;4783658;29;20050;-95
2023/07/19 09:52:06;;;;;;;1.55;0.68;;;18.60;99.90;;;;;;4816597;29;20084;-95
2023/07/19 09:54:32;;;;;;;2.28;0.90;;;18.60;99.90;;;;;;4828132;29;20049;-94
2023/07/19 09:56:59;;;;;;;2.17;0.80;;;18.90;99.90;;;;;;4813042;29;20052;-94
2023/07/19 09:59:35;;;;;;;2.72;0.90;;;19.50;99.90;;;;;;4825756;29;20033;-94
2023/07/19 10:02:05;;;;;;;2.33;0.65;;;18.90;99.90;;;;;;4828972;29;20632;-94
2023/07/19 10:04:37;;;;;;;1.13;0.50;;;19.10;99.90;;;;;;4812005;29;20528;-96
2023/07/19 10:07:12;;;;;;;0.70;0.50;;;19.00;99.90;;;;;;4827445;29;20042;-95
2023/07/19 10:09:39;;;;;;;1.88;1.00;;;19.00;99.90;;;;;;4825809;29;20038;-95
2023/07/19 10:12:07;;;;;;;2.58;0.60;;;19.30;99.90;;;;;;4828090;29;20057;-95
2023/07/19 10:14:33;;;;;;;2.10;0.70;;;19.50;99.90;;;;;;4837745;29;20582;-96
2023/07/19 10:17:00;;;;;;;3.10;0.60;;;19.70;99.90;;;;;;4817181;29;20517;-96
2023/07/19 10:19:32;;;;;;;2.47;0.43;;;19.90;99.90;;;;;;4821059;29;20045;-94
2023/07/19 10:25:46;;;;;;;2.22;0.50;;;19.90;99.90;;;;;;4860485;29;20120;-95
2023/07/19 10:28:26;;;;;;;2.53;0.55;;;19.50;99.90;;;;;;4828990;29;20141;-94
2023/07/19 10:30:59;;;;;;;1.63;0.60;;;19.70;99.90;;;;;;4828601;29;20045;-96
2023/07/19 10:33:26;;;;;;;1.08;0.60;;;19.70;99.90;;;;;;4833251;29;20073;-96
2023/07/19 10:35:58;;;;;;;0.95;0.50;;;19.70;99.90;;;;;;4824527;29;20046;-95
2023/07/19 10:38:30;;;;;;;3.10;0.70;;;19.90;99.90;;;;;;4819528;29;20041;-96
2023/07/19 10:41:44;;;;;;;2.88;0.63;;;19.90;99.90;;;;;;4816709;29;20048;-94
2023/07/19 10:44:14;;;;;;;0.95;0.60;;;19.70;99.90;;;;;;4816269;29;20058;-95
2023/07/19 10:46:58;;;;;;;1.77;0.60;;;19.60;99.90;;;;;;4821095;29;20134;-93
2023/07/19 10:50:08;;;;;;;1.25;0.60;;;19.70;99.90;;;;;;4847559;29;20101;-94
2023/07/19 10:52:37;;;;;;;1.30;0.55;;;19.50;99.90;;;;;;4846661;29;20175;-95
2023/07/19 10:55:06;;;;;;;1.17;0.50;;;19.40;99.90;;;;;;4830021;29;20038;-96
2023/07/19 10:57:40;;;;;;;0.85;0.50;;;19.30;99.90;;;;;;4825952;29;20049;-95
2023/07/19 11:11:12;;;;;;;2.00;0.50;;;19.80;99.90;;;;;;4844956;23;20148;-35
2023/07/19 11:13:38;;;;;;;2.35;0.50;;;19.70;99.90;;;;;;4857873;29;20053;-35
2023/07/19 11:16:04;;;;;;;1.57;0.47;;;19.60;99.90;;;;;;4854249;29;20477;-35
2023/07/19 11:18:40;;;;;;;1.55;0.47;;;19.50;99.90;;;;;;4853177;29;20053;-35
2023/07/19 11:21:44;;;;;;;1.75;0.50;;;19.50;99.90;;;;;;4835951;29;20049;-36
2023/07/19 11:29:38;;;;;;;0.77;0.30;;;19.70;99.90;;;;;;4842598;29;20451;-96
2023/07/19 11:32:21;;;;;;;1.05;0.30;;;19.90;99.90;;;;;;4794218;29;20052;-94
2023/07/19 11:34:48;;;;;;;0.68;0.30;;;20.00;99.90;;;;;;4795292;29;20494;-95
2023/07/19 11:40:15;;;;;;;1.38;0.50;;;20.10;99.90;;;;;;4843523;29;20050;-95
2023/07/19 11:43:07;;;;;;;1.92;0.45;;;19.90;99.90;;;;;;4808591;29;20042;-94
2023/07/19 11:45:34;;;;;;;1.63;0.40;;;19.80;99.90;;;;;;4797322;29;20050;-96
2023/07/19 11:48:02;;;;;;;1.30;0.50;;;19.90;99.90;;;;;;4796327;29;20051;-96
2023/07/19 11:50:31;;;;;;;1.02;0.30;;;20.00;99.90;;;;;;4813267;29;20467;-96
2023/07/19 11:53:01;;;;;;;2.47;0.40;;;20.10;99.90;;;;;;4826701;29;20068;-96
2023/07/19 11:55:29;;;;;;;2.53;0.75;;;20.10;99.90;;;;;;4811022;29;20123;-91
2023/07/19 11:58:04;;;;;;;1.60;0.60;;;20.00;99.90;;;;;;4794248;29;20041;-91
2023/07/19 12:00:32;;;;;;;0.90;0.30;;;20.10;99.90;;;;;;4798988;29;20047;-91
2023/07/19 12:02:58;;;;;;;0.55;0.30;;;20.20;99.90;;;;;;4810814;29;20082;-92
2023/07/19 12:05:25;;;;;;;1.13;0.50;;;20.30;99.90;;;;;;4813816;29;20046;-86
2023/07/19 12:07:51;;;;;;;0.88;0.50;;;20.30;99.90;;;;;;4813418;29;20138;-87
2023/07/19 12:10:21;;;;;;;0.70;0.35;;;20.40;99.90;;;;;;4790259;29;20081;-85
2023/07/19 12:12:48;;;;;;;0.95;0.30;;;20.40;99.90;;;;;;4808036;29;20050;-87
2023/07/19 12:15:15;;;;;;;1.00;0.35;;;20.40;99.90;;;;;;4820531;29;20038;-92
2023/07/19 12:17:41;;;;;;;0.88;0.40;;;19.70;99.90;;;;;;4810671;29;20068;-89
2023/07/19 12:20:08;;;;;;;1.15;0.40;;;20.40;99.90;;;;;;4809819;29;20085;-88
2023/07/19 12:22:35;;;;;;;;;;;20.30;99.90;;;;;;4810808;29;20570;-89
2023/07/19 12:25:01;;;;;;;1.30;0.40;;;20.20;99.90;;;;;;4809504;29;19920;-87
2023/07/19 12:27:27;;;;;;;1.40;0.30;;;20.20;99.90;;;;;;4795652;29;20061;-86
2023/07/19 12:29:53;;;;;;;1.50;0.47;;;20.20;99.90;;;;;;4792878;29;20139;-89
2023/07/19 12:32:20;;;;;;;0.90;0.30;;;20.20;99.90;;;;;;4814812;29;20120;-87
2023/07/19 12:34:46;;;;;;;0.60;0.35;;;20.20;99.90;;;;;;4797880;29;20038;-89
2023/07/19 12:37:13;;;;;;;0.47;0.20;;;20.20;99.90;;;;;;4810069;29;20049;-86
2023/07/19 12:39:42;;;;;;;1.38;0.30;;;20.00;99.90;;;;;;4794501;29;20053;-85
2023/07/19 12:42:09;;;;;;;2.00;0.45;;;20.10;99.90;;;;;;4793536;29;20049;-87
2023/07/19 12:44:36;;;;;;;;;;;19.90;99.90;;;;;;4816925;29;20045;-87
2023/07/19 12:47:03;;;;;;;0.88;0.40;;;20.00;99.90;;;;;;4801015;29;20412;-89
2023/07/19 12:49:28;;;;;;;0.98;0.30;;;19.90;99.90;;;;;;4809311;29;20069;-88
2023/07/19 12:51:54;;;;;;;0.47;0.30;;;19.80;99.90;;;;;;4807957;29;20069;-85
2023/07/19 12:54:20;;;;;;;0.98;0.30;;;19.80;99.90;;;;;;4822698;29;20065;-87
2023/07/19 12:56:45;;;;;;;1.45;0.30;;;19.70;99.90;;;;;;4813411;29;20082;-84
2023/07/19 12:59:11;;;;;;;1.27;0.47;;;19.70;99.90;;;;;;4816083;29;20037;-87
2023/07/19 13:01:38;;;;;;;0.75;0.30;;;19.70;99.90;;;;;;4806375;29;20038;-87
2023/07/19 13:04:04;;;;;;;0.73;0.30;;;19.80;99.90;;;;;;4804339;29;20078;-86
2023/07/19 13:06:30;;;;;;;2.90;0.32;;;19.80;99.90;;;;;;4803990;29;20045;-85
2023/07/19 13:08:57;;;;;;;0.88;0.25;;;19.80;99.90;;;;;;4791310;29;20041;-86
2023/07/19 13:11:25;;;;;;;0.32;0.15;;;19.70;99.90;;;;;;4800671;29;20042;-87
2023/07/19 13:13:52;;;;;;;0.35;0.20;;;19.60;99.90;;;;;;4792263;29;20125;-87
2023/07/19 13:16:18;;;;;;;0.77;0.30;;;19.60;99.90;;;;;;4777773;29;20126;-86
2023/07/19 13:18:44;;;;;;;1.20;0.20;;;19.60;99.90;;;;;;4819124;29;20057;-87
2023/07/19 13:21:13;;;;;;;0.43;0.20;;;19.60;99.90;;;;;;4807342;29;20286;-86
2023/07/19 13:23:41;;;;;;;0.35;0.20;;;19.60;99.90;;;;;;4798536;29;20045;-86
2023/07/19 13:26:06;;;;;;;0.68;0.30;;;19.70;99.90;;;;;;4780901;29;20145;-87
2023/07/19 13:28:32;;;;;;;0.70;0.28;;;19.60;99.90;;;;;;4798815;29;20132;-87
2023/07/19 13:30:59;;;;;;;1.17;0.20;;;19.60;99.90;;;;;;4792355;29;20058;-86
2023/07/19 13:33:26;;;;;;;0.40;0.10;;;19.70;99.90;;;;;;4809062;29;20471;-86
2023/07/19 13:35:52;;;;;;;0.50;0.20;;;19.60;99.90;;;;;;4809900;29;20082;-88
2023/07/19 13:38:20;;;;;;;0.60;0.30;;;19.70;99.90;;;;;;4793954;29;20558;-86
2023/07/19 13:40:46;;;;;;;0.45;0.30;;;19.70;99.90;;;;;;4806713;29;20679;-86
2023/07/19 13:43:14;;;;;;;0.45;0.30;;;19.70;99.90;;;;;;4794046;29;20050;-86
2023/07/19 13:45:40;;;;;;;1.20;0.20;;;19.60;99.90;;;;;;4788655;29;20065;-87
2023/07/19 13:48:08;;;;;;;0.90;0.30;;;19.70;99.90;;;;;;4798157;29;20042;-86
2023/07/19 13:50:34;;;;;;;0.25;0.15;;;19.60;99.90;;;;;;4806856;29;20038;-86
2023/07/19 13:53:00;;;;;;;0.60;0.30;;;19.70;99.90;;;;;;4829868;29;20666;-88
2023/07/19 13:55:30;;;;;;;0.63;0.20;;;19.70;99.90;;;;;;4801825;29;20062;-87
2023/07/19 13:57:56;;;;;;;0.77;0.10;;;19.70;99.90;;;;;;4835191;29;20074;-86
2023/07/19 14:00:22;;;;;;;0.93;0.20;;;19.80;99.90;;;;;;4810807;29;20026;-88
2023/07/19 14:02:51;;;;;;;1.13;0.40;;;19.70;99.90;;;;;;4807271;29;20058;-87
2023/07/19 14:05:17;;;;;;;0.57;0.20;;;19.60;99.90;;;;;;4793386;29;20117;-87
2023/07/19 14:07:42;;;;;;;0.82;0.30;;;19.60;99.90;;;;;;4803239;29;20050;-87
2023/07/19 14:10:08;;;;;;;0.55;0.20;;;19.60;99.90;;;;;;4804541;29;20045;-87
2023/07/19 14:12:37;;;;;;;0.93;0.30;;;19.50;99.90;;;;;;4801691;29;20034;-87
2023/07/19 14:15:04;;;;;;;0.40;0.10;;;19.50;99.90;;;;;;4784770;29;20106;-85
2023/07/19 14:17:30;;;;;;;;;;;19.50;99.90;;;;;;4815221;29;20383;-86
2023/07/19 14:19:56;;;;;;;0.55;0.30;;;19.50;99.90;;;;;;4791515;29;19928;-86
2023/07/19 14:22:22;;;;;;;0.88;0.30;;;19.60;99.90;;;;;;4788198;29;20045;-86
2023/07/19 14:24:48;;;;;;;0.43;0.20;;;19.60;99.90;;;;;;4786602;29;20061;-87
2023/07/19 14:27:13;;;;;;;1.13;0.22;;;19.70;99.90;;;;;;4810584;29;20080;-87
2023/07/19 14:29:40;;;;;;;0.50;0.20;;;19.60;99.90;;;;;;4819627;29;20062;-87
2023/07/19 14:32:10;;;;;;;0.20;0.20;;;19.60;99.90;;;;;;4797512;29;20416;-87
2023/07/19 14:34:36;;;;;;;0.73;0.20;;;19.50;99.90;;;;;;4806757;29;20077;-86
2023/07/19 14:37:02;;;;;;;0.55;0.30;;;19.40;99.90;;;;;;4790075;29;20082;-87
2023/07/19 14:39:27;;;;;;;0.28;0.20;;;19.30;99.90;;;;;;4814662;29;20092;-88
2023/07/19 14:41:54;;;;;;;0.22;0.20;;;19.20;99.90;;;;;;4795788;29;20098;-87
2023/07/19 14:44:24;;;;;;;0.88;0.30;;;19.20;99.90;;;;;;4806979;29;20050;-87
2023/07/19 14:46:50;;;;;;;0.75;0.30;;;19.20;99.90;;;;;;4794866;29;20053;-85
2023/07/19 14:49:19;;;;;;;0.55;0.20;;;19.30;99.90;;;;;;4789346;29;20038;-85
2023/07/19 14:51:45;;;;;;;0.32;0.20;;;19.30;99.90;;;;;;4797008;29;20052;-85
2023/07/19 14:54:10;;;;;;;0.50;0.28;;;19.20;99.90;;;;;;4806683;29;20041;-85
2023/07/19 14:56:37;;;;;;;1.65;0.30;;;19.10;99.90;;;;;;4791014;29;20070;-86
2023/07/19 14:59:03;;;;;;;0.13;0.13;;;19.00;99.90;;;;;;4792866;29;20119;-86
2023/07/19 15:01:32;;;;;;;1.05;0.30;;;19.00;99.90;;;;;;4811241;29;20102;-88
2023/07/19 15:03:59;;;;;;;0.13;0.13;;;18.90;99.90;;;;;;4805516;29;20050;-89
2023/07/19 15:06:25;;;;;;;0.40;0.20;;;19.00;99.90;;;;;;4811916;29;20133;-88
2023/07/19 15:08:51;;;;;;;1.58;0.28;;;19.00;99.90;;;;;;4795357;29;20137;-89
2023/07/19 15:11:16;;;;;;;1.17;0.30;;;19.00;99.90;;;;;;4789823;29;20103;-87
2023/07/19 15:13:45;;;;;;;0.82;0.30;;;19.00;99.90;;;;;;4802313;29;20109;-88
2023/07/19 15:16:11;;;;;;;0.20;0.20;;;18.90;99.90;;;;;;4801098;29;20049;-86
2023/07/19 15:18:38;;;;;;;0.43;0.20;;;18.90;99.90;;;;;;4830814;29;20050;-87
2023/07/19 15:21:03;;;;;;;1.08;0.30;;;18.90;99.90;;;;;;4815175;29;20073;-87
2023/07/19 15:23:32;;;;;;;2.28;0.50;;;18.90;99.90;;;;;;4817515;29;20450;-87
2023/07/19 15:25:59;;;;;;;0.40;0.30;;;18.90;99.90;;;;;;4787886;29;20098;-89
2023/07/19 15:28:25;;;;;;;0.80;0.30;;;18.90;99.90;;;;;;4800450;29;20055;-87
2023/07/19 15:30:53;;;;;;;0.90;0.30;;;18.90;99.90;;;;;;4801588;29;20062;-85
2023/07/19 15:33:19;;;;;;;0.50;0.45;;;18.90;99.90;;;;;;4805770;29;20121;-87
2023/07/19 15:35:45;;;;;;;0.43;0.30;;;18.90;99.90;;;;;;4836340;29;20114;-86
2023/07/19 15:38:18;;;;;;;1.15;0.20;;;18.90;99.90;;;;;;4796236;29;20046;-88
2023/07/19 15:40:45;;;;;;;0.82;0.30;;;18.90;99.90;;;;;;4809043;29;20068;-89
2023/07/19 15:43:11;;;;;;;0.68;0.30;;;18.90;99.90;;;;;;4796138;29;20053;-87